createdAt,value
2019-04-07T00:01:34.552Z,11.47
2019-04-07T00:07:39.270Z,11.58
2019-04-07T00:13:43.871Z,11.49
2019-04-07T00:19:48.786Z,11.37
2019-04-07T00:25:53.519Z,11.17
2019-04-07T00:31:58.100Z,11.13
2019-04-07T00:38:02.731Z,11.23
2019-04-07T00:44:07.351Z,11.22
2019-04-07T00:50:12.945Z,11.04
2019-04-07T00:56:18.287Z,11.24
2019-04-07T01:02:23.245Z,10.89
2019-04-07T01:08:28.168Z,10.86
2019-04-07T01:14:33.592Z,10.78
2019-04-07T01:20:38.266Z,10.76
2019-04-07T01:26:42.829Z,10.77
2019-04-07T01:32:47.561Z,10.63
2019-04-07T01:38:52.181Z,10.64
2019-04-07T01:45:10.533Z,10.51
2019-04-07T01:51:21.124Z,10.14
2019-04-07T01:57:25.701Z,10.05
2019-04-07T02:03:35.697Z,10.03
2019-04-07T02:09:41.964Z,9.85
2019-04-07T02:15:48.235Z,9.59
2019-04-07T02:21:54.635Z,9.49
2019-04-07T02:28:12.720Z,9.48
2019-04-07T02:34:30.872Z,9.58
2019-04-07T02:40:37.315Z,9.56
2019-04-07T02:46:49.619Z,9.70
2019-04-07T02:52:54.664Z,9.50
2019-04-07T02:59:10.170Z,9.27
2019-04-07T03:05:31.693Z,9.04
2019-04-07T03:11:44.610Z,9.04
2019-04-07T03:18:03.036Z,8.95
2019-04-07T03:24:28.499Z,8.85
2019-04-07T03:30:37.558Z,8.93
2019-04-07T03:37:13.840Z,8.98
2019-04-07T03:42:55.291Z,9.17
2019-04-07T03:48:59.952Z,9.14
2019-04-07T03:55:08.720Z,8.77
2019-04-07T04:01:19.382Z,8.42
2019-04-07T04:07:32.343Z,8.53
2019-04-07T04:13:39.040Z,8.49
2019-04-07T04:19:44.035Z,8.35
2019-04-07T04:25:49.105Z,8.13
2019-04-07T04:31:54.541Z,8.29
2019-04-07T04:37:59.771Z,7.92
2019-04-07T04:44:05.160Z,8.01
2019-04-07T04:50:10.947Z,7.73
2019-04-07T04:56:15.547Z,7.67
2019-04-07T05:02:20.092Z,7.68
2019-04-07T05:08:24.754Z,7.49
2019-04-07T05:14:29.276Z,7.54
2019-04-07T05:20:34.443Z,7.54
2019-04-07T05:26:39.048Z,7.57
2019-04-07T05:32:44.367Z,7.58
2019-04-07T05:38:48.904Z,7.57
2019-04-07T05:44:53.632Z,7.38
2019-04-07T05:50:59.931Z,7.67
2019-04-07T05:57:05.366Z,7.86
2019-04-07T06:03:10.076Z,8.13
2019-04-07T06:09:15.880Z,8.32
2019-04-07T06:15:22.176Z,8.59
2019-04-07T06:21:27.795Z,9.07
2019-04-07T06:27:32.607Z,9.10
2019-04-07T06:33:38.211Z,9.37
2019-04-07T06:39:44.073Z,9.58
2019-04-07T06:46:07.058Z,9.81
2019-04-07T06:52:17.321Z,10.18
2019-04-07T06:58:24.276Z,13.20
2019-04-07T07:04:33.283Z,17.54
2019-04-07T07:10:56.312Z,19.47
2019-04-07T07:17:19.709Z,20.70
2019-04-07T07:23:29.537Z,19.50
2019-04-07T07:29:34.096Z,17.02
2019-04-07T07:35:38.864Z,15.84
2019-04-07T07:41:43.686Z,15.51
2019-04-07T07:47:51.205Z,15.35
2019-04-07T07:53:56.604Z,15.32
2019-04-07T08:00:05.115Z,15.42
2019-04-07T08:06:08.389Z,15.44
2019-04-07T08:12:13.112Z,15.89
2019-04-07T08:18:19.847Z,16.49
2019-04-07T08:24:24.058Z,16.45
2019-04-07T08:30:28.896Z,16.61
2019-04-07T08:36:33.848Z,16.83
2019-04-07T08:42:39.185Z,17.47
2019-04-07T08:48:44.364Z,18.05
2019-04-07T08:54:52.182Z,18.54
2019-04-07T09:00:57.366Z,19.07
2019-04-07T09:07:03.843Z,19.40
2019-04-07T09:13:10.146Z,19.65
2019-04-07T09:19:18.172Z,20.32
2019-04-07T09:25:24.532Z,19.71
2019-04-07T09:31:36.445Z,20.51
2019-04-07T09:37:48.309Z,21.75
2019-04-07T09:44:01.133Z,22.93
2019-04-07T09:50:06.744Z,24.23
2019-04-07T09:56:16.236Z,24.92
2019-04-07T10:02:35.693Z,25.38
2019-04-07T10:08:47.906Z,26.73
2019-04-07T10:15:11.792Z,26.99
2019-04-07T10:21:35.045Z,26.88
2019-04-07T10:27:59.423Z,29.61
2019-04-07T10:34:06.247Z,29.87
2019-04-07T10:40:35.402Z,30.10
2019-04-07T10:46:44.938Z,30.92
2019-04-07T10:52:58.062Z,31.11
2019-04-07T10:59:07.508Z,31.12
2019-04-07T11:05:30.407Z,30.93
2019-04-07T11:11:44.711Z,31.82
2019-04-07T11:18:06.659Z,30.87
2019-04-07T11:24:15.520Z,29.20
2019-04-07T11:30:27.235Z,28.04
2019-04-07T11:36:43.235Z,29.38
2019-04-07T11:43:03.350Z,30.76
2019-04-07T11:49:26.676Z,28.81
2019-04-07T11:55:48.757Z,28.29
2019-04-07T12:01:53.245Z,30.18
2019-04-07T12:08:06.085Z,30.01
2019-04-07T12:14:17.035Z,33.16
2019-04-07T12:20:33.835Z,34.45
2019-04-07T12:26:56.700Z,34.61
2019-04-07T12:33:01.187Z,35.12
2019-04-07T12:39:16.318Z,35.12
2019-04-07T12:45:38.553Z,31.23
2019-04-07T12:51:44.867Z,26.61
2019-04-07T12:57:59.980Z,25.70
2019-04-07T13:04:10.059Z,26.08
2019-04-07T13:10:16.838Z,25.46
2019-04-07T13:16:26.000Z,23.91
2019-04-07T13:22:43.896Z,23.16
2019-04-07T13:29:00.691Z,22.64
2019-04-07T13:35:24.317Z,21.94
2019-04-07T13:41:38.708Z,21.30
2019-04-07T13:47:55.766Z,21.09
2019-04-07T13:54:05.463Z,21.07
2019-04-07T14:00:24.202Z,26.23
2019-04-07T14:06:29.451Z,26.96
2019-04-07T14:12:34.601Z,26.06
2019-04-07T14:18:44.494Z,24.45
2019-04-07T14:24:56.715Z,23.20
2019-04-07T14:31:28.219Z,22.68
2019-04-07T14:37:35.982Z,22.26
2019-04-07T14:43:43.127Z,21.74
2019-04-07T14:49:56.137Z,22.93
2019-04-07T14:56:05.883Z,28.02
2019-04-07T15:02:10.396Z,30.51
2019-04-07T15:08:23.629Z,32.40
2019-04-07T15:14:31.427Z,32.96
2019-04-07T15:20:34.763Z,30.57
2019-04-07T15:26:40.083Z,30.88
2019-04-07T15:32:44.728Z,29.97
2019-04-07T15:38:49.743Z,29.12
2019-04-07T15:44:54.587Z,27.95
2019-04-07T15:51:02.485Z,28.67
2019-04-07T15:57:05.744Z,28.11
2019-04-07T16:03:12.735Z,28.81
2019-04-07T16:09:30.689Z,29.79
2019-04-07T16:15:23.295Z,29.37
2019-04-07T16:21:29.729Z,28.26
2019-04-07T16:27:36.461Z,28.52
2019-04-07T16:33:40.991Z,28.19
2019-04-07T16:39:45.774Z,26.87
2019-04-07T16:45:50.666Z,24.95
2019-04-07T16:51:58.367Z,25.18
2019-04-07T16:58:02.916Z,24.86
2019-04-07T17:04:08.328Z,25.00
2019-04-07T17:10:13.400Z,24.78
2019-04-07T17:16:22.603Z,24.28
2019-04-07T17:22:25.132Z,23.77
2019-04-07T17:28:29.862Z,23.16
2019-04-07T17:34:35.388Z,21.82
2019-04-07T17:40:51.818Z,20.76
2019-04-07T17:47:13.894Z,19.61
2019-04-07T17:53:20.086Z,18.54
2019-04-07T17:59:24.420Z,17.54
2019-04-07T18:05:29.275Z,16.83
2019-04-07T18:11:47.670Z,16.46
2019-04-07T18:18:10.346Z,16.10
2019-04-07T18:24:16.852Z,15.39
2019-04-07T18:30:25.948Z,15.08
2019-04-07T18:36:42.672Z,14.73
2019-04-07T18:42:51.418Z,14.49
2019-04-07T18:49:15.852Z,14.12
2019-04-07T18:55:39.338Z,14.00
2019-04-07T19:01:52.603Z,13.64
2019-04-07T19:08:17.462Z,13.65
2019-04-07T19:14:45.967Z,13.67
2019-04-07T19:21:02.996Z,13.65
2019-04-07T19:27:21.178Z,13.59
2019-04-07T19:33:24.479Z,13.83
2019-04-07T19:39:32.956Z,14.02
2019-04-07T19:45:39.286Z,14.07
2019-04-07T19:51:46.956Z,14.11
2019-04-07T19:57:54.819Z,14.06
2019-04-07T20:04:03.745Z,13.85
2019-04-07T20:10:16.417Z,13.63
2019-04-07T20:16:21.933Z,13.45
2019-04-07T20:22:41.402Z,13.29
2019-04-07T20:28:47.752Z,13.20
2019-04-07T20:34:59.038Z,13.20
2019-04-07T20:41:17.587Z,13.21
2019-04-07T20:47:40.395Z,13.16
2019-04-07T20:53:45.121Z,13.32
2019-04-07T20:59:55.166Z,13.23
2019-04-07T21:06:06.339Z,13.27
2019-04-07T21:12:30.192Z,13.43
2019-04-07T21:18:40.277Z,13.52
2019-04-07T21:25:02.548Z,13.50
2019-04-07T21:31:26.049Z,13.38
2019-04-07T21:37:35.848Z,13.38
2019-04-07T21:43:46.680Z,13.18
2019-04-07T21:50:07.559Z,13.00
2019-04-07T21:56:22.244Z,13.02
2019-04-07T22:02:31.496Z,12.81
2019-04-07T22:08:43.344Z,12.87
2019-04-07T22:14:47.567Z,12.65
2019-04-07T22:20:54.533Z,12.69
2019-04-07T22:26:59.336Z,12.70
2019-04-07T22:33:04.242Z,12.71
2019-04-07T22:39:09.004Z,12.56
2019-04-07T22:45:14.825Z,12.63
2019-04-07T22:51:19.666Z,12.07
2019-04-07T22:57:24.326Z,11.65
2019-04-07T23:03:29.293Z,11.42
2019-04-07T23:09:34.040Z,11.41
2019-04-07T23:15:44.338Z,10.77
2019-04-07T23:21:44.883Z,10.78
2019-04-07T23:27:50.015Z,10.63
2019-04-07T23:33:54.642Z,10.30
2019-04-07T23:40:00.170Z,10.12
2019-04-07T23:46:05.328Z,9.84
2019-04-07T23:52:09.890Z,9.81
2019-04-07T23:58:14.458Z,9.59
